createdAt,value
2018-01-14T00:00:20.077Z,96.10
2018-01-14T00:03:25.868Z,96.00
2018-01-14T00:06:30.741Z,95.60
2018-01-14T00:09:35.938Z,95.10
2018-01-14T00:12:41.597Z,94.90
2018-01-14T00:15:46.749Z,94.70
2018-01-14T00:18:52.329Z,94.80
2018-01-14T00:21:57.769Z,94.90
2018-01-14T00:25:03.261Z,95.00
2018-01-14T00:28:08.622Z,95.10
2018-01-14T00:31:13.553Z,95.00
2018-01-14T00:34:19.577Z,94.80
2018-01-14T00:37:26.030Z,94.70
2018-01-14T00:40:31.611Z,94.40
2018-01-14T00:43:37.361Z,94.60
2018-01-14T00:46:42.882Z,94.60
2018-01-14T00:49:48.397Z,94.90
2018-01-14T00:52:54.124Z,94.90
2018-01-14T00:55:59.402Z,94.90
2018-01-14T00:59:04.788Z,95.30
2018-01-14T01:02:10.261Z,95.30
2018-01-14T01:05:16.127Z,95.40
2018-01-14T01:08:21.669Z,95.40
2018-01-14T01:11:27.353Z,95.40
2018-01-14T01:14:33.124Z,95.50
2018-01-14T01:17:39.268Z,95.60
2018-01-14T01:20:45.845Z,95.50
2018-01-14T01:23:51.365Z,95.50
2018-01-14T01:26:57.002Z,95.10
2018-01-14T01:30:02.272Z,95.10
2018-01-14T01:33:08.025Z,95.10
2018-01-14T01:36:13.378Z,95.30
2018-01-14T01:39:20.990Z,95.50
2018-01-14T01:42:26.277Z,95.50
2018-01-14T01:45:31.117Z,95.70
2018-01-14T01:48:36.085Z,95.70
2018-01-14T01:51:41.163Z,95.90
2018-01-14T01:54:46.418Z,95.80
2018-01-14T01:57:51.345Z,95.60
2018-01-14T02:00:57.440Z,95.50
2018-01-14T02:04:03.505Z,95.50
2018-01-14T02:07:08.397Z,95.60
2018-01-14T02:10:13.210Z,95.60
2018-01-14T02:13:18.450Z,95.90
2018-01-14T02:16:25.034Z,96.30
2018-01-14T02:19:31.377Z,96.30
2018-01-14T02:22:37.058Z,96.30
2018-01-14T02:25:43.178Z,96.70
2018-01-14T02:28:49.249Z,97.00
2018-01-14T02:31:55.854Z,97.00
2018-01-14T02:35:00.685Z,97.00
2018-01-14T02:38:05.545Z,96.90
2018-01-14T02:41:10.847Z,97.00
2018-01-14T02:44:15.825Z,96.50
2018-01-14T02:47:21.661Z,96.90
2018-01-14T02:50:27.302Z,96.90
2018-01-14T02:53:32.190Z,97.10
2018-01-14T02:56:37.978Z,97.30
2018-01-14T02:59:43.053Z,97.30
2018-01-14T03:02:48.750Z,97.50
2018-01-14T03:05:55.236Z,97.80
2018-01-14T03:09:00.797Z,98.00
2018-01-14T03:12:05.810Z,97.60
2018-01-14T03:15:10.944Z,97.60
2018-01-14T03:18:16.591Z,97.60
2018-01-14T03:21:21.946Z,97.60
2018-01-14T03:24:27.389Z,97.80
2018-01-14T03:27:32.045Z,97.70
2018-01-14T03:30:37.749Z,97.50
2018-01-14T03:33:43.665Z,97.60
2018-01-14T03:36:49.260Z,97.60
2018-01-14T03:39:55.637Z,98.00
2018-01-14T03:43:00.746Z,98.00
2018-01-14T03:46:06.641Z,97.40
2018-01-14T03:49:12.153Z,97.30
2018-01-14T03:52:17.538Z,97.10
2018-01-14T03:55:22.636Z,96.90
2018-01-14T03:58:27.897Z,96.60
2018-01-14T04:01:33.457Z,96.70
2018-01-14T04:04:39.021Z,96.70
2018-01-14T04:07:44.158Z,96.70
2018-01-14T04:10:50.253Z,96.90
2018-01-14T04:13:55.413Z,96.90
2018-01-14T04:17:01.072Z,97.40
2018-01-14T04:20:06.561Z,97.40
2018-01-14T04:23:12.305Z,97.40
2018-01-14T04:26:18.062Z,97.90
2018-01-14T04:29:23.745Z,97.20
2018-01-14T04:32:29.569Z,98.10
2018-01-14T04:35:34.893Z,98.10
2018-01-14T04:38:40.345Z,98.20
2018-01-14T04:41:45.432Z,98.40
2018-01-14T04:44:50.983Z,98.80
2018-01-14T04:47:55.925Z,99.30
2018-01-14T04:51:01.061Z,99.30
2018-01-14T04:54:06.133Z,99.40
2018-01-14T04:57:12.297Z,99.60
2018-01-14T05:00:17.665Z,99.80
2018-01-14T05:03:24.114Z,99.90
2018-01-14T05:06:28.931Z,99.90
2018-01-14T05:09:34.341Z,99.90
2018-01-14T05:12:39.629Z,99.90
2018-01-14T05:15:45.441Z,99.60
2018-01-14T05:18:50.702Z,99.60
2018-01-14T05:21:56.418Z,99.30
2018-01-14T05:25:01.685Z,99.40
2018-01-14T05:28:06.533Z,99.10
2018-01-14T05:31:12.442Z,99.10
2018-01-14T05:34:17.969Z,99.50
2018-01-14T05:37:23.169Z,98.80
2018-01-14T05:40:28.250Z,98.70
2018-01-14T05:43:34.645Z,98.60
2018-01-14T05:46:40.081Z,98.60
2018-01-14T05:49:45.598Z,98.60
2018-01-14T05:52:51.009Z,98.30
2018-01-14T05:55:56.806Z,98.40
2018-01-14T05:59:02.201Z,98.40
2018-01-14T06:02:08.497Z,97.80
2018-01-14T06:05:14.894Z,97.30
2018-01-14T06:08:21.098Z,97.20
2018-01-14T06:11:27.530Z,96.80
2018-01-14T06:14:32.529Z,96.80
2018-01-14T06:17:38.857Z,96.40
2018-01-14T06:20:44.664Z,96.30
2018-01-14T06:23:49.646Z,96.30
2018-01-14T06:26:54.838Z,96.20
2018-01-14T06:30:01.138Z,96.00
2018-01-14T06:33:06.677Z,96.00
2018-01-14T06:36:12.957Z,95.80
2018-01-14T06:39:18.169Z,95.70
2018-01-14T06:42:23.112Z,95.70
2018-01-14T06:45:28.741Z,95.80
2018-01-14T06:48:34.351Z,95.80
2018-01-14T06:51:39.675Z,95.90
2018-01-14T06:54:45.166Z,95.80
2018-01-14T06:57:52.029Z,95.70
2018-01-14T07:00:57.602Z,95.80
2018-01-14T07:04:03.373Z,95.40
2018-01-14T07:07:08.722Z,95.40
2018-01-14T07:10:14.337Z,95.30
2018-01-14T07:13:19.642Z,95.50
2018-01-14T07:16:24.393Z,95.40
2018-01-14T07:19:29.425Z,95.50
2018-01-14T07:22:35.225Z,95.60
2018-01-14T07:25:40.377Z,95.20
2018-01-14T07:28:45.481Z,95.20
2018-01-14T07:31:50.518Z,95.10
2018-01-14T07:34:56.097Z,95.20
2018-01-14T07:38:01.090Z,95.40
2018-01-14T07:41:06.797Z,95.40
2018-01-14T07:44:12.325Z,95.30
2018-01-14T07:47:18.105Z,95.30
2018-01-14T07:50:23.077Z,95.20
2018-01-14T07:53:28.431Z,95.40
2018-01-14T07:56:34.127Z,95.20
2018-01-14T07:59:39.593Z,95.40
2018-01-14T08:02:45.862Z,95.30
2018-01-14T08:05:50.889Z,95.30
2018-01-14T08:08:57.313Z,94.80
2018-01-14T08:12:02.662Z,94.90
2018-01-14T08:15:07.686Z,95.00
2018-01-14T08:18:12.954Z,95.10
2018-01-14T08:21:18.869Z,94.60
2018-01-14T08:24:24.502Z,94.60
2018-01-14T08:27:29.441Z,94.90
2018-01-14T08:30:35.478Z,94.40
2018-01-14T08:33:41.993Z,94.40
2018-01-14T08:36:47.365Z,94.10
2018-01-14T08:39:52.445Z,94.40
2018-01-14T08:42:58.929Z,94.00
2018-01-14T08:46:03.866Z,93.60
2018-01-14T08:49:09.613Z,93.60
2018-01-14T08:52:15.714Z,93.40
2018-01-14T08:55:21.010Z,93.40
2018-01-14T08:58:26.625Z,93.20
2018-01-14T09:01:38.361Z,93.50
2018-01-14T09:04:44.447Z,92.80
2018-01-14T09:07:49.473Z,92.80
2018-01-14T09:10:54.945Z,93.30
2018-01-14T09:14:00.416Z,93.10
2018-01-14T09:17:05.518Z,93.00
2018-01-14T09:20:11.003Z,92.90
2018-01-14T09:23:16.564Z,92.90
2018-01-14T09:26:22.402Z,92.40
2018-01-14T09:29:27.486Z,92.50
2018-01-14T09:32:33.289Z,92.80
2018-01-14T09:35:39.617Z,92.80
2018-01-14T09:38:44.743Z,93.10
2018-01-14T09:41:49.889Z,92.70
2018-01-14T09:44:56.314Z,92.10
2018-01-14T09:48:01.825Z,92.10
2018-01-14T09:51:06.946Z,92.20
2018-01-14T09:54:13.359Z,92.30
2018-01-14T09:57:18.831Z,92.20
2018-01-14T10:00:23.976Z,91.90
2018-01-14T10:03:29.311Z,92.70
2018-01-14T10:06:35.517Z,92.30
2018-01-14T10:09:41.280Z,92.30
2018-01-14T10:12:46.505Z,91.70
2018-01-14T10:15:59.734Z,92.20
2018-01-14T10:19:05.396Z,92.10
2018-01-14T10:22:11.354Z,91.80
2018-01-14T10:25:16.251Z,91.70
2018-01-14T10:28:21.856Z,91.70
2018-01-14T10:31:27.354Z,91.20
2018-01-14T10:34:32.353Z,91.80
2018-01-14T10:37:37.277Z,92.00
2018-01-14T10:40:42.674Z,91.80
2018-01-14T10:43:48.438Z,91.40
2018-01-14T10:46:53.935Z,91.40
2018-01-14T10:49:59.510Z,91.70
2018-01-14T10:53:04.351Z,91.60
2018-01-14T10:56:10.058Z,91.10
2018-01-14T10:59:15.342Z,91.00
2018-01-14T11:02:20.904Z,91.10
2018-01-14T11:05:26.802Z,90.40
2018-01-14T11:08:32.113Z,90.40
2018-01-14T11:11:37.393Z,90.50
2018-01-14T11:14:42.970Z,90.00
2018-01-14T11:17:48.426Z,90.30
2018-01-14T11:20:54.094Z,90.00
2018-01-14T11:23:59.685Z,89.60
2018-01-14T11:27:05.366Z,90.00
2018-01-14T11:30:14.982Z,90.20
2018-01-14T11:33:20.249Z,90.30
2018-01-14T11:36:25.313Z,90.20
2018-01-14T11:39:30.869Z,90.10
2018-01-14T11:42:37.341Z,91.00
2018-01-14T11:45:42.377Z,91.00
2018-01-14T11:48:48.781Z,90.60
2018-01-14T11:51:55.274Z,90.20
2018-01-14T11:55:01.497Z,89.60
2018-01-14T11:58:06.542Z,89.60
2018-01-14T12:01:11.976Z,89.30
2018-01-14T12:04:16.862Z,89.10
2018-01-14T12:07:21.990Z,88.70
2018-01-14T12:10:27.585Z,89.50
2018-01-14T12:13:35.453Z,89.20
2018-01-14T12:16:40.162Z,89.20
2018-01-14T12:19:45.217Z,90.30
2018-01-14T12:22:50.757Z,89.60
2018-01-14T12:25:57.367Z,89.80
2018-01-14T12:29:02.689Z,89.20
2018-01-14T12:32:08.422Z,88.80
2018-01-14T12:35:15.729Z,87.60
2018-01-14T12:38:21.167Z,88.30
2018-01-14T12:41:26.361Z,88.20
2018-01-14T12:44:32.428Z,88.40
2018-01-14T12:47:37.385Z,88.30
2018-01-14T12:50:42.604Z,89.80
2018-01-14T12:53:47.407Z,89.00
2018-01-14T12:56:52.867Z,86.40
2018-01-14T12:59:58.769Z,88.60
2018-01-14T13:03:04.881Z,87.70
2018-01-14T13:06:09.849Z,87.60
2018-01-14T13:09:14.889Z,87.50
2018-01-14T13:12:20.094Z,87.30
2018-01-14T13:15:25.953Z,86.80
2018-01-14T13:18:32.157Z,87.20
2018-01-14T13:21:37.723Z,87.10
2018-01-14T13:24:42.765Z,87.20
2018-01-14T13:27:48.550Z,85.70
2018-01-14T13:30:53.394Z,87.00
2018-01-14T13:33:58.509Z,87.60
2018-01-14T13:37:04.617Z,88.10
2018-01-14T13:40:09.821Z,87.90
2018-01-14T13:43:16.071Z,86.30
2018-01-14T13:46:21.725Z,86.30
2018-01-14T13:49:27.873Z,87.00
2018-01-14T13:52:33.177Z,87.00
2018-01-14T13:55:39.190Z,87.10
2018-01-14T13:58:44.965Z,87.10
2018-01-14T14:01:50.846Z,87.30
2018-01-14T14:04:56.888Z,89.00
2018-01-14T14:08:03.030Z,88.90
2018-01-14T14:11:08.570Z,88.90
2018-01-14T14:14:14.099Z,90.00
2018-01-14T14:17:19.166Z,88.80
2018-01-14T14:20:25.353Z,86.50
2018-01-14T14:23:31.673Z,86.20
2018-01-14T14:26:36.730Z,86.20
2018-01-14T14:29:41.673Z,87.20
2018-01-14T14:32:47.869Z,88.80
2018-01-14T14:35:53.334Z,88.80
2018-01-14T14:38:58.997Z,89.20
2018-01-14T14:42:04.465Z,89.20
2018-01-14T14:45:09.981Z,89.60
2018-01-14T14:48:14.813Z,90.30
2018-01-14T14:51:20.069Z,89.40
2018-01-14T14:54:24.886Z,90.60
2018-01-14T14:57:31.149Z,89.80
2018-01-14T15:00:36.122Z,89.80
2018-01-14T15:03:40.960Z,89.80
2018-01-14T15:06:46.647Z,90.00
2018-01-14T15:09:52.373Z,90.20
2018-01-14T15:12:57.737Z,90.70
2018-01-14T15:16:03.009Z,90.10
2018-01-14T15:19:08.397Z,90.50
2018-01-14T15:22:14.066Z,90.60
2018-01-14T15:25:19.293Z,91.70
2018-01-14T15:28:24.969Z,91.90
2018-01-14T15:31:30.537Z,91.40
2018-01-14T15:34:36.289Z,91.60
2018-01-14T15:37:41.975Z,92.20
2018-01-14T15:40:47.201Z,92.30
2018-01-14T15:43:52.896Z,92.40
2018-01-14T15:46:57.741Z,93.00
2018-01-14T15:50:03.370Z,93.00
2018-01-14T15:53:08.970Z,93.00
2018-01-14T15:56:13.925Z,92.80
2018-01-14T15:59:19.129Z,93.00
2018-01-14T16:02:25.163Z,93.50
2018-01-14T16:05:31.702Z,93.60
2018-01-14T16:08:36.508Z,93.50
2018-01-14T16:11:42.789Z,93.60
2018-01-14T16:14:48.473Z,93.60
2018-01-14T16:17:54.229Z,93.70
2018-01-14T16:20:59.498Z,94.10
2018-01-14T16:24:04.974Z,94.00
2018-01-14T16:27:10.496Z,94.50
2018-01-14T16:30:15.625Z,94.60
2018-01-14T16:33:21.251Z,94.80
2018-01-14T16:36:26.415Z,94.80
2018-01-14T16:39:31.642Z,94.70
2018-01-14T16:42:36.645Z,94.70
2018-01-14T16:45:41.189Z,94.60
2018-01-14T16:48:46.105Z,94.70
2018-01-14T16:51:50.793Z,94.90
2018-01-14T16:54:56.318Z,95.10
2018-01-14T16:58:01.678Z,95.10
2018-01-14T17:01:06.470Z,94.80
2018-01-14T17:04:12.094Z,94.80
2018-01-14T17:07:17.189Z,94.80
2018-01-14T17:10:22.934Z,94.80
2018-01-14T17:13:28.017Z,95.00
2018-01-14T17:16:34.034Z,95.70
2018-01-14T17:19:39.922Z,95.70
2018-01-14T17:22:45.254Z,95.70
2018-01-14T17:25:50.929Z,95.40
2018-01-14T17:28:56.601Z,95.60
2018-01-14T17:32:02.387Z,95.60
2018-01-14T17:35:07.262Z,95.60
2018-01-14T17:38:12.674Z,95.60
2018-01-14T17:41:19.209Z,96.10
2018-01-14T17:44:24.593Z,96.40
2018-01-14T17:47:30.291Z,96.20
2018-01-14T17:50:35.873Z,95.80
2018-01-14T17:53:41.185Z,95.80
2018-01-14T17:56:45.882Z,95.40
2018-01-14T17:59:51.726Z,95.30
2018-01-14T18:02:57.308Z,95.30
2018-01-14T18:06:03.082Z,95.00
2018-01-14T18:09:08.433Z,94.90
2018-01-14T18:12:14.525Z,94.90
2018-01-14T18:15:19.863Z,94.90
2018-01-14T18:18:25.438Z,94.90
2018-01-14T18:21:30.506Z,95.10
2018-01-14T18:24:35.941Z,95.00
2018-01-14T18:27:41.654Z,95.10
2018-01-14T18:30:46.296Z,95.00
2018-01-14T18:33:51.967Z,95.20
2018-01-14T18:36:57.098Z,95.50
2018-01-14T18:40:02.945Z,95.50
2018-01-14T18:43:08.638Z,95.80
2018-01-14T18:46:24.609Z,95.80
2018-01-14T18:49:31.132Z,95.90
2018-01-14T18:52:36.390Z,95.90
2018-01-14T18:55:41.600Z,95.90
2018-01-14T18:58:46.938Z,96.00
2018-01-14T19:01:52.214Z,96.10
2018-01-14T19:04:57.517Z,96.00
2018-01-14T19:08:02.522Z,95.60
2018-01-14T19:11:07.721Z,95.70
2018-01-14T19:14:12.718Z,95.90
2018-01-14T19:17:18.335Z,96.10
2018-01-14T19:20:24.171Z,96.00
2018-01-14T19:23:29.278Z,96.10
2018-01-14T19:26:34.146Z,96.60
2018-01-14T19:29:39.590Z,96.70
2018-01-14T19:32:45.356Z,96.40
2018-01-14T19:35:51.193Z,96.60
2018-01-14T19:38:56.999Z,96.50
2018-01-14T19:42:02.173Z,96.30
2018-01-14T19:45:07.813Z,96.90
2018-01-14T19:48:13.634Z,97.10
2018-01-14T19:51:18.658Z,97.20
2018-01-14T19:54:23.942Z,97.70
2018-01-14T19:57:29.522Z,98.20
2018-01-14T20:00:34.652Z,98.20
2018-01-14T20:03:39.660Z,98.50
2018-01-14T20:06:44.905Z,98.70
2018-01-14T20:09:49.889Z,98.80
2018-01-14T20:12:54.906Z,98.80
2018-01-14T20:16:00.449Z,98.80
2018-01-14T20:19:05.927Z,99.20
2018-01-14T20:22:12.051Z,99.20
2018-01-14T20:25:18.191Z,99.30
2018-01-14T20:28:24.034Z,99.30
2018-01-14T20:31:29.405Z,99.40
2018-01-14T20:34:35.233Z,99.50
2018-01-14T20:37:41.005Z,99.90
2018-01-14T20:40:46.377Z,99.90
2018-01-14T20:43:52.020Z,99.90
2018-01-14T20:46:56.950Z,99.90
2018-01-14T20:50:02.585Z,99.70
2018-01-14T20:53:08.378Z,99.90
2018-01-14T20:56:13.232Z,99.90
2018-01-14T20:59:18.460Z,99.90
2018-01-14T21:02:23.869Z,99.90
2018-01-14T21:05:29.350Z,99.80
2018-01-14T21:08:35.053Z,99.90
2018-01-14T21:11:40.308Z,99.90
2018-01-14T21:14:45.565Z,99.90
2018-01-14T21:17:51.003Z,99.90
2018-01-14T21:20:55.819Z,99.90
2018-01-14T21:24:01.134Z,99.90
2018-01-14T21:27:05.958Z,99.90
2018-01-14T21:30:11.314Z,99.90
2018-01-14T21:33:16.982Z,99.90
2018-01-14T21:36:22.477Z,99.90
2018-01-14T21:39:28.049Z,99.90
2018-01-14T21:42:33.429Z,99.90
2018-01-14T21:45:39.353Z,99.90
2018-01-14T21:48:46.501Z,99.90
2018-01-14T21:51:51.842Z,99.90
2018-01-14T21:54:57.376Z,99.90
2018-01-14T21:58:02.729Z,99.90
2018-01-14T22:01:07.781Z,99.90
2018-01-14T22:04:12.511Z,99.90
2018-01-14T22:07:17.785Z,99.90
2018-01-14T22:10:22.757Z,99.90
2018-01-14T22:13:28.206Z,99.90
2018-01-14T22:16:33.262Z,99.90
2018-01-14T22:19:38.329Z,99.90
2018-01-14T22:22:43.694Z,99.90
2018-01-14T22:25:48.573Z,99.90
2018-01-14T22:28:54.045Z,99.90
2018-01-14T22:32:00.297Z,99.90
2018-01-14T22:35:06.549Z,99.90
2018-01-14T22:38:12.009Z,99.90
2018-01-14T22:41:16.965Z,99.90
2018-01-14T22:44:22.833Z,99.90
2018-01-14T22:47:27.563Z,99.90
2018-01-14T22:50:33.473Z,99.90
2018-01-14T22:53:39.174Z,99.90
2018-01-14T22:56:44.195Z,99.90
2018-01-14T22:59:49.578Z,99.90
2018-01-14T23:02:55.017Z,99.90
2018-01-14T23:05:59.802Z,99.90
2018-01-14T23:09:05.362Z,99.90
2018-01-14T23:12:10.685Z,99.90
2018-01-14T23:15:16.421Z,99.90
2018-01-14T23:18:22.076Z,99.90
2018-01-14T23:21:27.154Z,99.90
2018-01-14T23:24:33.321Z,99.90
2018-01-14T23:27:39.561Z,99.90
2018-01-14T23:30:45.094Z,99.90
2018-01-14T23:33:49.981Z,99.90
2018-01-14T23:36:55.546Z,99.90
2018-01-14T23:40:02.022Z,99.90
2018-01-14T23:43:08.273Z,99.90
2018-01-14T23:46:12.949Z,99.90
2018-01-14T23:49:17.797Z,99.90
2018-01-14T23:52:23.483Z,99.90
2018-01-14T23:55:28.229Z,99.90
2018-01-14T23:58:33.633Z,99.90
